Strona główna
METAR-TAF:

METAR-TAF

Lotnisko :

Oswego County Airport

Fulton, Nowy Jork, Stany Zjednoczone

Szerokość geograficzna: 43-21-03N, Długość geograficzna: 076-23-17W, wysokość: 145 m

Aktualna obserwacja pogody

Raport powstał 15 minut temu, godzina 11:42 UTC
Wiatr 6 kt od zachód w porywach dochodzący do 18 kt
Temperatura 21°C
Wilgotność 88%
Ciśnienie 1007 hPa
Widzialność: 3.2 km
Przerywane chmury na wysokości 700 ft
Zachmurzenie całkowite na wysokości 1300 ft
silny deszcz, zamglenie

METAR: KFZY 251142Z AUTO 28006G18KT 2SM +RA BR BKN007 OVC013 21/19 A2973 RMK AO2 P0028 T02060194

czas: 07:57 (11:57 UTC)


TAF: brakujący

Obserwacja i prognoza pogody dla ponad 4000 lotnisk (raport METAR i TAF).

Dostępne stacje oznaczono żółtymi i czerwonymi punktami na mapie.

Najedź kursorem aby zobaczyć nazwę stacji.

Kliknij aby zobaczyć obserwacje i prognozy pogody.

Aby zmienić mapę: kliknij na zielony przycisk z czarnym krzyżykiem, aby powiększyć; na zielony przycisk z myślnikiem, aby pomniejszyć; na zielone strzałki, aby przejść do map sąsiednich.


METAR-TAF: